Time;durP1;ratioP1;P1;durP2;ratioP2;P2;SDS_P1;SDS_P2;PMS_P1;PMS_P2;Temp;Humidity;BMP_temperature;BMP_pressure;BME280_temperature;BME280_humidity;BME280_pressure;Samples;Min_cycle;Max_cycle;Signal;HPM_P1;HPM_P2
2021/08/04 00:01:50;;;;;;;5.30;2.47;;;14.20;99.90;;;;;;5032608;28;20083;-61
2021/08/04 00:04:16;;;;;;;6.35;3.00;;;14.20;99.90;;;;;;5037940;28;20133;-63
2021/08/04 00:06:42;;;;;;;7.25;3.00;;;14.10;99.90;;;;;;5037384;28;20116;-62
2021/08/04 00:09:08;;;;;;;4.63;2.75;;;14.10;99.90;;;;;;5036739;28;20108;-61
2021/08/04 00:11:34;;;;;;;4.70;2.80;;;14.10;99.90;;;;;;5032941;28;20545;-60
2021/08/04 00:14:00;;;;;;;11.50;2.70;;;14.10;99.90;;;;;;5032528;28;20033;-62
2021/08/04 00:16:26;;;;;;;3.88;2.28;;;14.10;99.90;;;;;;5032929;28;20028;-61
2021/08/04 00:18:52;;;;;;;6.45;2.78;;;14.00;99.90;;;;;;5033531;28;20099;-63
2021/08/04 00:21:17;;;;;;;5.25;2.80;;;14.00;99.90;;;;;;5033537;28;20738;-61
2021/08/04 00:23:43;;;;;;;3.63;2.50;;;13.90;99.90;;;;;;5034593;28;20053;-62
2021/08/04 00:26:09;;;;;;;8.60;2.70;;;13.90;99.90;;;;;;5033171;28;20032;-62
2021/08/04 00:28:34;;;;;;;3.90;2.50;;;13.90;99.90;;;;;;5032962;28;20091;-61
2021/08/04 00:31:00;;;;;;;3.17;2.65;;;13.80;99.90;;;;;;5031688;28;20036;-61
2021/08/04 00:33:26;;;;;;;4.20;2.65;;;13.70;99.90;;;;;;5032001;28;20072;-60
2021/08/04 00:35:51;;;;;;;7.10;2.50;;;13.70;99.90;;;;;;5040415;28;20037;-61
2021/08/04 00:38:17;;;;;;;4.32;2.50;;;13.70;99.90;;;;;;5034465;28;20099;-61
2021/08/04 00:40:43;;;;;;;3.95;2.38;;;13.70;99.90;;;;;;5024500;28;20037;-61
2021/08/04 00:43:10;;;;;;;5.82;2.55;;;13.60;99.90;;;;;;5027002;28;20026;-61
2021/08/04 00:45:36;;;;;;;5.35;2.58;;;13.50;99.90;;;;;;5032128;28;20052;-62
2021/08/04 00:48:03;;;;;;;6.80;2.60;;;13.40;99.90;;;;;;5037871;28;20046;-60
2021/08/04 00:50:29;;;;;;;4.30;2.67;;;13.40;99.90;;;;;;5031506;28;20087;-61
2021/08/04 00:52:55;;;;;;;5.35;2.78;;;13.30;99.90;;;;;;5030273;28;20037;-61
2021/08/04 00:55:21;;;;;;;4.10;3.00;;;13.20;99.90;;;;;;5030777;28;20033;-60
2021/08/04 00:57:46;;;;;;;5.10;2.22;;;13.20;99.90;;;;;;5031279;28;20060;-60
2021/08/04 01:00:12;;;;;;;6.65;2.50;;;13.10;99.90;;;;;;5030900;28;20034;-61
2021/08/04 01:02:42;;;;;;;4.50;2.60;;;13.10;99.90;;;;;;5044418;28;20082;-61
2021/08/04 01:05:17;;;;;;;4.32;2.70;;;13.00;99.90;;;;;;5041929;28;20025;-61
2021/08/04 01:07:56;;;;;;;5.85;3.00;;;13.00;99.90;;;;;;5047008;28;20048;-61
2021/08/04 01:10:27;;;;;;;5.72;3.35;;;12.90;99.90;;;;;;5031213;28;20036;-63
2021/08/04 01:13:11;;;;;;;7.97;3.70;;;12.80;99.90;;;;;;5025189;28;20053;-61
2021/08/04 01:15:46;;;;;;;7.40;3.47;;;12.90;99.90;;;;;;5037825;28;20056;-61
2021/08/04 01:18:18;;;;;;;7.93;3.33;;;12.80;99.90;;;;;;5036787;28;20072;-62
2021/08/04 01:20:43;;;;;;;7.63;3.45;;;12.80;99.90;;;;;;5031241;28;20064;-62
2021/08/04 01:23:18;;;;;;;5.18;3.38;;;12.80;99.90;;;;;;5039604;28;20065;-61
2021/08/04 01:26:01;;;;;;;6.60;3.72;;;12.80;99.90;;;;;;5031319;28;20112;-60
2021/08/04 01:28:44;;;;;;;5.68;3.30;;;12.70;99.90;;;;;;4991674;28;1173353;-60
2021/08/04 01:31:13;;;;;;;4.95;3.47;;;12.70;99.90;;;;;;5036605;28;20029;-61
2021/08/04 01:33:44;;;;;;;8.07;3.88;;;12.70;99.90;;;;;;5031527;28;20037;-61
2021/08/04 01:36:11;;;;;;;4.63;3.03;;;12.60;99.90;;;;;;5034805;28;20094;-64
2021/08/04 01:38:38;;;;;;;5.95;3.38;;;12.60;99.90;;;;;;5031649;28;20498;-62
2021/08/04 01:41:05;;;;;;;6.03;3.50;;;12.60;99.90;;;;;;5036689;28;20040;-61
2021/08/04 01:43:33;;;;;;;7.60;3.65;;;12.60;99.90;;;;;;5041447;28;20396;-61
2021/08/04 01:45:59;;;;;;;11.63;4.50;;;12.50;99.90;;;;;;5031243;28;20037;-60
2021/08/04 01:48:26;;;;;;;5.50;3.70;;;12.40;99.90;;;;;;5040390;28;20037;-62
2021/08/04 01:50:55;;;;;;;6.00;4.13;;;12.50;99.90;;;;;;5029212;28;20041;-62
2021/08/04 01:53:23;;;;;;;6.93;4.25;;;12.40;99.90;;;;;;5033406;28;20033;-61
2021/08/04 01:55:49;;;;;;;7.80;4.13;;;12.40;99.90;;;;;;5035447;28;20112;-60
2021/08/04 01:58:14;;;;;;;10.70;4.50;;;12.40;99.90;;;;;;5037568;28;20136;-61
2021/08/04 02:00:40;;;;;;;8.70;4.10;;;12.40;99.90;;;;;;5035647;28;20135;-62
2021/08/04 02:03:06;;;;;;;7.78;4.15;;;12.40;99.90;;;;;;5032091;28;20034;-60
2021/08/04 02:05:32;;;;;;;5.60;4.20;;;12.40;99.90;;;;;;5038374;28;20025;-61
2021/08/04 02:08:26;;;;;;;10.02;4.57;;;12.40;99.90;;;;;;5044960;28;20025;-62
2021/08/04 02:10:57;;;;;;;9.52;4.60;;;12.30;99.90;;;;;;5030573;28;20037;-61
2021/08/04 02:13:39;;;;;;;8.95;5.10;;;12.30;99.90;;;;;;5030999;28;20096;-60
2021/08/04 02:16:26;;;;;;;8.38;4.50;;;12.40;99.90;;;;;;5039709;28;20031;-60
2021/08/04 02:19:17;;;;;;;11.85;4.72;;;12.30;99.90;;;;;;5031516;28;20037;-61
2021/08/04 02:21:47;;;;;;;7.85;4.68;;;12.30;99.90;;;;;;5018503;28;20036;-61
2021/08/04 02:24:16;;;;;;;7.57;4.80;;;12.30;99.90;;;;;;5041701;28;20092;-61
2021/08/04 02:26:43;;;;;;;9.05;4.50;;;12.30;99.90;;;;;;5030729;28;20041;-61
2021/08/04 02:29:11;;;;;;;12.07;4.95;;;12.30;99.90;;;;;;5041428;28;20086;-63
2021/08/04 02:31:38;;;;;;;7.57;4.53;;;12.30;99.90;;;;;;5032416;28;20112;-60
2021/08/04 02:34:04;;;;;;;6.82;4.57;;;12.20;99.90;;;;;;5030883;28;20033;-62
2021/08/04 02:36:29;;;;;;;6.82;4.50;;;12.20;99.90;;;;;;5036058;28;20149;-60
2021/08/04 02:39:01;;;;;;;7.10;4.38;;;12.10;99.90;;;;;;5030932;28;20472;-60
2021/08/04 02:41:28;;;;;;;11.52;5.25;;;12.10;99.90;;;;;;5035197;28;20518;-61
2021/08/04 02:43:54;;;;;;;7.63;4.60;;;12.20;99.90;;;;;;5030930;28;20069;-62
2021/08/04 02:46:21;;;;;;;8.85;4.53;;;12.30;99.90;;;;;;5035490;28;20041;-60
2021/08/04 02:48:47;;;;;;;7.50;4.35;;;12.20;99.90;;;;;;5043888;28;20095;-60
2021/08/04 02:51:13;;;;;;;6.22;4.45;;;12.10;99.90;;;;;;5038397;28;20479;-60
2021/08/04 02:53:39;;;;;;;6.78;4.35;;;12.00;99.90;;;;;;5033870;28;20379;-62
2021/08/04 02:56:06;;;;;;;7.85;4.53;;;11.90;99.90;;;;;;5034716;28;20033;-60
2021/08/04 02:58:36;;;;;;;8.52;4.40;;;11.90;99.90;;;;;;5033068;28;20524;-62
2021/08/04 03:01:05;;;;;;;7.25;4.60;;;11.90;99.90;;;;;;5031954;28;20037;-62
2021/08/04 03:03:31;;;;;;;6.43;4.20;;;11.90;99.90;;;;;;5034725;28;20403;-62
2021/08/04 03:05:57;;;;;;;10.95;4.65;;;11.80;99.90;;;;;;5032757;28;20038;-63
2021/08/04 03:08:22;;;;;;;8.45;4.40;;;11.80;99.90;;;;;;5037438;28;20080;-61
2021/08/04 03:10:48;;;;;;;7.50;4.10;;;11.80;99.90;;;;;;5030049;28;20033;-62
2021/08/04 03:13:14;;;;;;;6.28;3.85;;;11.70;99.90;;;;;;5031093;28;20443;-61
2021/08/04 03:15:39;;;;;;;6.78;4.32;;;11.70;99.90;;;;;;5027687;28;20036;-60
2021/08/04 03:18:05;;;;;;;6.13;3.90;;;11.70;99.90;;;;;;5030461;28;20028;-59
2021/08/04 03:20:31;;;;;;;7.55;5.05;;;11.60;99.90;;;;;;5028807;28;20079;-60
2021/08/04 03:22:57;;;;;;;5.43;4.57;;;11.50;99.90;;;;;;5031814;28;20029;-61
2021/08/04 03:25:22;;;;;;;9.23;4.55;;;11.60;99.90;;;;;;5038671;28;20032;-59
2021/08/04 03:27:48;;;;;;;7.05;4.63;;;11.50;99.90;;;;;;5030428;28;20050;-60
2021/08/04 03:30:14;;;;;;;6.63;4.10;;;11.60;99.90;;;;;;5035246;28;20120;-59
2021/08/04 03:32:40;;;;;;;9.23;4.38;;;11.60;99.90;;;;;;5030787;28;20025;-61
2021/08/04 03:35:07;;;;;;;5.72;3.95;;;11.60;99.90;;;;;;5029637;28;20041;-60
2021/08/04 03:37:34;;;;;;;7.30;4.30;;;11.60;99.90;;;;;;5036249;28;20038;-60
2021/08/04 03:39:59;;;;;;;5.70;4.28;;;11.50;99.90;;;;;;5037472;28;20040;-60
2021/08/04 03:42:25;;;;;;;6.80;4.38;;;11.40;99.90;;;;;;5031343;28;20073;-62
2021/08/04 03:44:51;;;;;;;5.72;3.85;;;11.40;99.90;;;;;;5037466;28;20731;-60
2021/08/04 03:47:17;;;;;;;6.00;4.47;;;11.40;99.90;;;;;;5033231;28;20033;-60
2021/08/04 03:49:43;;;;;;;6.13;3.95;;;11.40;99.90;;;;;;5035446;28;20041;-62
2021/08/04 03:52:09;;;;;;;6.18;4.10;;;11.40;99.90;;;;;;5030897;28;20379;-61
2021/08/04 03:54:34;;;;;;;6.43;4.43;;;11.30;99.90;;;;;;5030650;28;20021;-60
2021/08/04 03:57:00;;;;;;;5.70;3.97;;;11.40;99.90;;;;;;5029020;28;20041;-60
2021/08/04 03:59:26;;;;;;;5.75;4.13;;;11.30;99.90;;;;;;5025089;28;20476;-60
2021/08/04 04:01:51;;;;;;;5.70;3.95;;;11.30;99.90;;;;;;5022266;28;20033;-59
2021/08/04 04:04:17;;;;;;;13.43;4.90;;;11.30;99.90;;;;;;5030268;28;20488;-61
2021/08/04 04:06:43;;;;;;;9.75;4.50;;;11.30;99.90;;;;;;5034121;28;20029;-60
2021/08/04 04:09:08;;;;;;;5.82;3.83;;;11.20;99.90;;;;;;5039308;28;20029;-60
2021/08/04 04:11:36;;;;;;;7.50;4.50;;;11.10;99.90;;;;;;5029484;28;20038;-62
2021/08/04 04:14:01;;;;;;;7.82;4.20;;;11.10;99.90;;;;;;5030160;28;20029;-61
2021/08/04 04:16:27;;;;;;;4.72;4.00;;;11.10;99.90;;;;;;5031239;28;20483;-61
2021/08/04 04:18:53;;;;;;;8.82;4.20;;;11.00;99.90;;;;;;5029536;28;20115;-59
2021/08/04 04:21:19;;;;;;;7.10;4.10;;;10.90;99.90;;;;;;5030338;28;20464;-61
2021/08/04 04:23:44;;;;;;;5.30;3.75;;;10.90;99.90;;;;;;5036322;28;20432;-59
2021/08/04 04:26:10;;;;;;;7.35;4.30;;;10.90;99.90;;;;;;5036655;28;20029;-59
2021/08/04 04:28:36;;;;;;;5.80;4.00;;;10.80;99.90;;;;;;5032323;28;20049;-60
2021/08/04 04:31:02;;;;;;;9.40;4.43;;;10.80;99.90;;;;;;5026251;28;20108;-63
2021/08/04 04:33:27;;;;;;;7.22;4.20;;;10.80;99.90;;;;;;5037140;28;20033;-60
2021/08/04 04:35:55;;;;;;;8.52;4.30;;;10.80;99.90;;;;;;5030343;28;20386;-61
2021/08/04 04:38:21;;;;;;;4.50;3.47;;;10.70;99.90;;;;;;5045375;28;20458;-62
2021/08/04 04:40:46;;;;;;;11.38;4.00;;;10.70;99.90;;;;;;5030486;28;20029;-61
2021/08/04 04:43:12;;;;;;;7.55;4.20;;;10.70;99.90;;;;;;5034081;28;20037;-61
2021/08/04 04:45:38;;;;;;;7.25;3.92;;;10.70;99.90;;;;;;5033494;28;20088;-62
2021/08/04 04:48:04;;;;;;;6.95;3.70;;;10.90;99.90;;;;;;5032758;28;20045;-59
2021/08/04 04:50:32;;;;;;;9.02;4.13;;;10.80;99.90;;;;;;5032066;28;20459;-60
2021/08/04 04:52:57;;;;;;;6.80;4.50;;;10.70;99.90;;;;;;5022731;28;20041;-62
2021/08/04 04:55:23;;;;;;;8.73;4.00;;;10.80;99.90;;;;;;5034613;28;20091;-62
2021/08/04 04:57:49;;;;;;;9.73;4.32;;;10.90;99.90;;;;;;5032873;28;20450;-58
2021/08/04 05:00:14;;;;;;;11.50;4.88;;;10.90;99.90;;;;;;5032452;28;20034;-60
2021/08/04 05:02:41;;;;;;;11.30;5.22;;;10.90;99.90;;;;;;5031401;28;20036;-60
2021/08/04 05:05:08;;;;;;;8.95;5.32;;;10.90;99.90;;;;;;5032937;28;20086;-61
2021/08/04 05:07:34;;;;;;;12.45;5.95;;;10.80;99.90;;;;;;5029549;28;21100;-62
2021/08/04 05:09:59;;;;;;;10.18;5.80;;;10.90;99.90;;;;;;5035891;28;20039;-60
2021/08/04 05:12:25;;;;;;;12.30;6.30;;;10.90;99.90;;;;;;5030389;28;20029;-61
2021/08/04 05:14:51;;;;;;;11.65;5.97;;;10.90;99.90;;;;;;5033465;28;20025;-60
2021/08/04 05:17:16;;;;;;;15.10;6.95;;;11.00;99.90;;;;;;5033557;28;20030;-62
2021/08/04 05:19:43;;;;;;;15.43;7.20;;;11.00;99.90;;;;;;5032931;28;20442;-61
2021/08/04 05:22:09;;;;;;;12.73;6.85;;;11.20;99.90;;;;;;5031837;28;20109;-61
2021/08/04 05:24:36;;;;;;;10.88;5.88;;;11.20;99.90;;;;;;5043876;28;20080;-60
2021/08/04 05:27:02;;;;;;;10.25;6.30;;;11.20;99.90;;;;;;5030367;28;20045;-61
2021/08/04 05:29:28;;;;;;;11.85;5.82;;;11.30;99.90;;;;;;5032537;28;20490;-61
2021/08/04 05:31:53;;;;;;;16.38;5.88;;;11.40;99.90;;;;;;5031737;28;20116;-59
2021/08/04 05:34:19;;;;;;;12.70;5.53;;;11.50;99.90;;;;;;5040880;28;20030;-60
2021/08/04 05:36:45;;;;;;;14.50;5.60;;;11.60;99.90;;;;;;5032549;28;20034;-62
2021/08/04 05:39:11;;;;;;;8.85;5.18;;;11.50;99.90;;;;;;5036683;28;20496;-63
2021/08/04 05:41:39;;;;;;;12.35;5.85;;;11.50;99.90;;;;;;5038153;28;20036;-61
2021/08/04 05:44:05;;;;;;;23.20;7.50;;;11.60;99.90;;;;;;5042731;28;20167;-61
2021/08/04 05:46:31;;;;;;;12.23;6.40;;;11.70;99.90;;;;;;5030195;28;20056;-62
2021/08/04 05:48:56;;;;;;;11.27;6.47;;;12.00;99.90;;;;;;5032498;28;20026;-60
2021/08/04 05:51:22;;;;;;;14.70;6.97;;;12.10;99.90;;;;;;5030802;28;20025;-61
2021/08/04 05:53:48;;;;;;;17.15;7.03;;;12.20;99.90;;;;;;5040582;28;20122;-61
2021/08/04 05:56:13;;;;;;;17.73;6.82;;;12.30;99.90;;;;;;5037102;28;20075;-61
2021/08/04 05:58:39;;;;;;;15.43;7.00;;;12.40;99.90;;;;;;5028711;28;20033;-61
2021/08/04 06:01:05;;;;;;;14.65;6.75;;;12.50;99.90;;;;;;5038272;28;20114;-60
2021/08/04 06:03:30;;;;;;;18.30;6.43;;;12.60;99.90;;;;;;5038153;28;20025;-61
2021/08/04 06:05:56;;;;;;;13.15;6.45;;;12.80;99.90;;;;;;5026030;28;20021;-60
2021/08/04 06:08:22;;;;;;;14.85;6.20;;;12.80;99.90;;;;;;5037038;28;20123;-62
2021/08/04 06:10:47;;;;;;;13.73;6.03;;;12.80;99.90;;;;;;5031967;28;20022;-60
2021/08/04 06:13:13;;;;;;;14.40;7.35;;;12.90;99.90;;;;;;5030086;28;20021;-62
2021/08/04 06:15:39;;;;;;;13.48;6.80;;;13.00;99.90;;;;;;5028049;28;20029;-61
2021/08/04 06:18:05;;;;;;;15.48;6.60;;;13.20;99.90;;;;;;5031016;28;20475;-61
2021/08/04 06:20:30;;;;;;;15.40;7.72;;;13.30;99.90;;;;;;5031655;28;20104;-60
2021/08/04 06:22:56;;;;;;;15.05;7.18;;;13.60;99.90;;;;;;5031030;28;20033;-61
2021/08/04 06:25:22;;;;;;;25.58;7.97;;;13.80;99.90;;;;;;5030438;28;20030;-61
2021/08/04 06:27:49;;;;;;;23.65;9.18;;;14.00;99.90;;;;;;5032131;28;20122;-61
2021/08/04 06:30:14;;;;;;;13.60;8.07;;;14.20;99.90;;;;;;5026982;28;20112;-59
2021/08/04 06:32:40;;;;;;;18.08;7.43;;;14.40;99.90;;;;;;5043393;28;20109;-59
2021/08/04 06:35:09;;;;;;;15.05;6.82;;;14.50;99.90;;;;;;5031411;28;20079;-62
2021/08/04 06:37:34;;;;;;;16.10;6.20;;;14.70;99.90;;;;;;5038071;28;20030;-60
2021/08/04 06:40:00;;;;;;;13.30;6.03;;;14.80;99.90;;;;;;5034703;28;20048;-61
2021/08/04 06:42:26;;;;;;;16.98;5.97;;;15.00;99.90;;;;;;5037339;28;20091;-61
2021/08/04 06:44:52;;;;;;;13.00;6.28;;;15.10;99.90;;;;;;5033146;28;20112;-60
2021/08/04 06:47:17;;;;;;;9.40;4.70;;;15.30;99.90;;;;;;5039721;28;20040;-61
2021/08/04 06:49:43;;;;;;;8.82;4.97;;;15.40;99.90;;;;;;5030866;28;20037;-60
2021/08/04 06:52:08;;;;;;;22.25;5.97;;;15.80;99.90;;;;;;5028630;28;20025;-60
2021/08/04 06:54:34;;;;;;;12.95;6.00;;;16.20;99.90;;;;;;5030431;28;20049;-61
2021/08/04 06:57:00;;;;;;;10.35;5.40;;;16.60;99.90;;;;;;5041703;28;20098;-61
2021/08/04 06:59:26;;;;;;;13.05;3.85;;;17.10;99.90;;;;;;5030554;28;20045;-59
2021/08/04 07:01:51;;;;;;;13.40;4.95;;;17.40;99.90;;;;;;5027918;28;20499;-61
2021/08/04 07:04:17;;;;;;;7.25;4.25;;;17.80;99.90;;;;;;5030788;28;20060;-62
2021/08/04 07:06:57;;;;;;;13.02;4.18;;;18.00;99.90;;;;;;5035328;28;20036;-60
2021/08/04 07:09:23;;;;;;;6.50;3.63;;;18.20;99.90;;;;;;5024244;28;20108;-60
2021/08/04 07:11:50;;;;;;;8.27;3.60;;;18.40;99.90;;;;;;5029991;28;20108;-61
2021/08/04 07:14:17;;;;;;;8.68;3.95;;;18.60;99.90;;;;;;5030137;28;20468;-59
2021/08/04 07:16:43;;;;;;;8.77;3.75;;;18.70;99.90;;;;;;5029717;28;20025;-58
2021/08/04 07:19:10;;;;;;;9.10;4.00;;;18.80;99.90;;;;;;5029967;28;20063;-59
2021/08/04 07:21:36;;;;;;;6.35;3.65;;;18.80;99.90;;;;;;5030185;28;20437;-60
2021/08/04 07:24:02;;;;;;;7.18;3.70;;;18.80;99.90;;;;;;5029612;28;20025;-61
2021/08/04 07:26:28;;;;;;;11.55;3.92;;;18.70;99.90;;;;;;5037203;28;20400;-60
2021/08/04 07:28:53;;;;;;;6.78;4.10;;;18.80;99.90;;;;;;5024804;28;20049;-60
2021/08/04 07:31:19;;;;;;;6.60;2.80;;;18.80;99.90;;;;;;5036381;28;20021;-60
2021/08/04 07:33:45;;;;;;;9.05;3.30;;;18.90;99.90;;;;;;5029990;28;20041;-60
2021/08/04 07:36:12;;;;;;;7.25;3.30;;;18.80;99.90;;;;;;5036051;28;20501;-61
2021/08/04 07:38:37;;;;;;;5.05;2.63;;;18.90;99.90;;;;;;5027952;28;20036;-60
2021/08/04 07:41:04;;;;;;;7.35;2.78;;;19.20;99.90;;;;;;5034713;28;20032;-61
2021/08/04 07:43:30;;;;;;;8.85;3.63;;;19.10;99.90;;;;;;5028977;28;20137;-60
2021/08/04 07:45:56;;;;;;;9.55;2.75;;;19.00;99.90;;;;;;5041237;28;20108;-63
2021/08/04 07:48:22;;;;;;;5.95;2.88;;;18.90;99.90;;;;;;5034315;28;20047;-61
2021/08/04 07:50:47;;;;;;;6.90;3.00;;;19.10;99.90;;;;;;5038904;28;20408;-60
2021/08/04 07:53:13;;;;;;;4.38;2.22;;;19.10;99.90;;;;;;5029592;28;20392;-60
2021/08/04 07:55:39;;;;;;;5.53;2.05;;;19.20;99.90;;;;;;5033814;28;20375;-62
2021/08/04 07:58:04;;;;;;;6.20;2.30;;;19.20;99.90;;;;;;5041851;28;20072;-62
2021/08/04 08:00:30;;;;;;;6.68;2.30;;;19.10;99.90;;;;;;5033328;28;20068;-62
2021/08/04 08:02:57;;;;;;;5.85;1.83;;;18.90;99.90;;;;;;5033709;28;20065;-62
2021/08/04 08:05:22;;;;;;;9.02;1.90;;;19.10;99.90;;;;;;5032952;28;20387;-59
2021/08/04 08:07:49;;;;;;;7.18;2.47;;;19.50;99.90;;;;;;5033382;28;20029;-62
2021/08/04 08:10:18;;;;;;;4.40;2.30;;;20.00;99.90;;;;;;5037736;28;20372;-61
2021/08/04 08:12:45;;;;;;;4.25;1.70;;;20.30;99.90;;;;;;5028237;28;20084;-61
2021/08/04 08:15:12;;;;;;;8.93;2.65;;;20.50;99.90;;;;;;5033116;28;20022;-60
2021/08/04 08:17:38;;;;;;;4.55;2.30;;;20.70;99.90;;;;;;5034935;28;20029;-61
2021/08/04 08:20:05;;;;;;;4.25;1.75;;;20.90;99.90;;;;;;5034482;28;20032;-61
2021/08/04 08:22:31;;;;;;;3.58;1.40;;;21.10;99.90;;;;;;5031805;28;20037;-59
2021/08/04 08:24:56;;;;;;;8.73;2.03;;;21.20;99.90;;;;;;5036870;28;20090;-60
2021/08/04 08:27:22;;;;;;;5.50;2.10;;;21.40;99.90;;;;;;5042506;28;20112;-61
2021/08/04 08:29:48;;;;;;;3.10;1.50;;;21.60;99.90;;;;;;5032316;28;20029;-62
2021/08/04 08:32:14;;;;;;;3.65;2.22;;;21.50;99.90;;;;;;5040513;28;20525;-61
2021/08/04 08:34:39;;;;;;;7.28;1.65;;;21.30;99.90;;;;;;5033757;28;20123;-61
2021/08/04 08:37:05;;;;;;;3.03;1.60;;;21.60;99.90;;;;;;5036804;28;20468;-61
2021/08/04 08:39:32;;;;;;;6.43;2.20;;;21.80;99.90;;;;;;5033312;28;20037;-62
2021/08/04 08:41:59;;;;;;;4.97;2.30;;;22.10;99.90;;;;;;5038452;28;20022;-62
2021/08/04 08:44:26;;;;;;;5.05;1.80;;;22.10;99.90;;;;;;5032704;28;20070;-63
2021/08/04 08:46:52;;;;;;;4.72;1.70;;;22.20;99.90;;;;;;5033640;28;20033;-59
2021/08/04 08:49:26;;;;;;;7.72;2.47;;;22.60;99.90;;;;;;5032071;28;20027;-62
2021/08/04 08:51:52;;;;;;;3.15;1.85;;;22.20;99.90;;;;;;5034456;28;20036;-60
2021/08/04 08:54:18;;;;;;;5.65;2.20;;;22.20;99.90;;;;;;5028811;28;20032;-60
2021/08/04 08:56:44;;;;;;;5.60;2.00;;;22.10;99.90;;;;;;5036869;28;20021;-61
2021/08/04 08:59:10;;;;;;;3.30;2.03;;;22.40;99.90;;;;;;5030539;28;20046;-60
2021/08/04 09:01:37;;;;;;;4.57;1.63;;;22.60;99.90;;;;;;5029570;28;20057;-61
2021/08/04 09:04:10;;;;;;;3.75;1.98;;;22.70;99.90;;;;;;5037196;28;20032;-62
2021/08/04 09:06:56;;;;;;;4.85;2.10;;;22.70;99.90;;;;;;5033452;28;20029;-60
2021/08/04 09:09:25;;;;;;;7.05;1.83;;;22.70;99.90;;;;;;5025333;28;20021;-61
2021/08/04 09:12:12;;;;;;;3.10;1.90;;;22.40;99.90;;;;;;5031693;28;20060;-59
2021/08/04 09:14:39;;;;;;;3.92;1.88;;;22.60;99.90;;;;;;5032043;28;20112;-60
2021/08/04 09:17:16;;;;;;;3.72;1.80;;;23.00;99.90;;;;;;5041416;28;20037;-62
2021/08/04 09:19:53;;;;;;;6.78;2.00;;;22.90;99.90;;;;;;5038541;28;20130;-60
2021/08/04 09:22:26;;;;;;;10.23;2.25;;;23.00;99.90;;;;;;5033047;28;20032;-60
2021/08/04 09:25:21;;;;;;;2.50;1.50;;;23.20;99.90;;;;;;5031862;28;20029;-62
2021/08/04 09:27:51;;;;;;;2.80;1.60;;;23.30;99.90;;;;;;5020030;28;20056;-61
2021/08/04 09:30:29;;;;;;;3.05;1.80;;;23.30;99.90;;;;;;5024987;28;21249;-61
2021/08/04 09:33:16;;;;;;;3.50;1.50;;;23.20;99.90;;;;;;5042487;28;20490;-61
2021/08/04 09:35:52;;;;;;;5.28;1.85;;;23.10;99.90;;;;;;5031679;28;20147;-61
2021/08/04 09:38:21;;;;;;;3.47;1.85;;;22.90;99.90;;;;;;5025422;28;20033;-61
2021/08/04 09:41:07;;;;;;;8.45;1.83;;;23.10;99.90;;;;;;5032582;28;20033;-61
2021/08/04 09:43:33;;;;;;;5.80;1.65;;;23.40;99.90;;;;;;5031605;28;20033;-60
2021/08/04 09:45:59;;;;;;;5.63;2.28;;;23.20;99.90;;;;;;5042515;28;20032;-61
2021/08/04 09:48:27;;;;;;;3.60;1.60;;;23.50;99.90;;;;;;5030977;28;20369;-60
2021/08/04 09:51:01;;;;;;;4.30;1.70;;;23.60;99.90;;;;;;5030833;28;20076;-60
2021/08/04 09:53:34;;;;;;;3.42;1.60;;;24.00;99.90;;;;;;5031028;28;20033;-59
2021/08/04 09:56:03;;;;;;;3.70;1.50;;;24.00;99.90;;;;;;5033178;28;20484;-60
2021/08/04 09:58:29;;;;;;;1.55;1.45;;;24.00;99.90;;;;;;5030411;28;20031;-60
2021/08/04 10:00:55;;;;;;;7.25;1.88;;;23.80;99.90;;;;;;5028182;28;20033;-61
2021/08/04 10:03:21;;;;;;;6.10;2.00;;;23.70;99.90;;;;;;5031056;28;20033;-60
2021/08/04 10:05:47;;;;;;;6.57;2.10;;;24.00;99.90;;;;;;5037743;28;20108;-61
2021/08/04 10:08:13;;;;;;;7.25;1.85;;;24.10;99.90;;;;;;5031784;28;20040;-60
2021/08/04 10:10:45;;;;;;;14.98;2.97;;;24.10;99.90;;;;;;5034802;28;20041;-61
2021/08/04 10:13:18;;;;;;;3.95;1.77;;;23.80;99.90;;;;;;5029416;28;20029;-62
2021/08/04 10:15:56;;;;;;;7.97;2.33;;;23.90;99.90;;;;;;5034584;28;20021;-62
2021/08/04 10:18:25;;;;;;;7.43;2.03;;;23.90;99.90;;;;;;5030649;28;20034;-59
2021/08/04 10:21:04;;;;;;;4.63;1.80;;;24.00;99.90;;;;;;5027122;28;20454;-60
2021/08/04 10:23:31;;;;;;;3.67;1.45;;;23.90;99.90;;;;;;5031294;28;20406;-60
2021/08/04 10:25:59;;;;;;;10.90;2.05;;;23.60;99.90;;;;;;5036588;28;20360;-63
2021/08/04 10:28:26;;;;;;;5.85;1.90;;;23.40;99.90;;;;;;5030941;28;20107;-61
2021/08/04 10:30:53;;;;;;;11.00;1.77;;;23.70;99.90;;;;;;5028395;28;20037;-60
2021/08/04 10:33:18;;;;;;;3.38;1.60;;;23.60;99.90;;;;;;5031108;28;20478;-62
2021/08/04 10:35:51;;;;;;;5.13;2.17;;;23.20;99.90;;;;;;5029034;28;20121;-61
2021/08/04 10:38:23;;;;;;;5.72;2.35;;;23.10;99.90;;;;;;5032503;28;20026;-61
2021/08/04 10:41:17;;;;;;;5.10;2.35;;;23.10;99.90;;;;;;5029372;28;20392;-62
2021/08/04 10:43:47;;;;;;;3.90;2.05;;;22.90;99.90;;;;;;5028965;28;20032;-63
2021/08/04 10:46:31;;;;;;;6.35;2.42;;;22.90;99.90;;;;;;5035345;28;20039;-61
2021/08/04 10:48:58;;;;;;;8.20;2.17;;;23.10;99.90;;;;;;5034482;28;20059;-61
2021/08/04 10:51:25;;;;;;;4.32;1.90;;;23.30;99.90;;;;;;5039504;28;20036;-62
2021/08/04 10:54:18;;;;;;;2.40;1.70;;;23.50;99.90;;;;;;5031670;28;20387;-62
2021/08/04 10:56:43;;;;;;;5.75;2.33;;;23.30;99.90;;;;;;5036934;28;20112;-61
2021/08/04 10:59:09;;;;;;;4.55;2.10;;;23.40;99.90;;;;;;5029959;28;20029;-61
2021/08/04 11:01:35;;;;;;;1.80;1.65;;;23.40;99.90;;;;;;5035928;28;20034;-62
2021/08/04 11:04:02;;;;;;;2.65;2.10;;;23.60;99.90;;;;;;5028960;28;20029;-60
2021/08/04 11:06:28;;;;;;;5.57;2.22;;;23.50;99.90;;;;;;5029500;28;20036;-60
2021/08/04 11:09:12;;;;;;;4.80;2.30;;;23.40;99.90;;;;;;5029547;28;20033;-61
2021/08/04 11:12:00;;;;;;;2.67;1.80;;;23.40;99.90;;;;;;5026504;28;20068;-61
2021/08/04 11:14:37;;;;;;;4.70;1.77;;;23.50;99.90;;;;;;5015753;28;20045;-61
2021/08/04 11:17:04;;;;;;;6.88;2.80;;;23.60;99.90;;;;;;5036529;28;20055;-61
2021/08/04 11:19:36;;;;;;;6.93;2.35;;;23.90;99.90;;;;;;5028661;28;20048;-62
2021/08/04 11:22:17;;;;;;;4.07;2.00;;;23.90;99.90;;;;;;5030172;28;20038;-59
2021/08/04 11:25:12;;;;;;;5.55;2.22;;;24.00;99.90;;;;;;5022212;28;20022;-62
2021/08/04 11:27:44;;;;;;;6.63;2.08;;;24.00;99.90;;;;;;5021468;28;20064;-61
2021/08/04 11:30:34;;;;;;;3.95;1.90;;;24.20;99.90;;;;;;5024500;28;20029;-60
2021/08/04 11:33:27;;;;;;;6.18;2.70;;;24.20;99.90;;;;;;5031475;28;20041;-60
2021/08/04 11:36:15;;;;;;;6.65;2.50;;;24.40;99.90;;;;;;5041476;28;20170;-62
2021/08/04 11:38:56;;;;;;;6.15;2.40;;;24.20;99.90;;;;;;5042282;28;20479;-59
2021/08/04 11:41:44;;;;;;;4.55;2.22;;;24.10;99.90;;;;;;5034981;28;20113;-61
2021/08/04 11:44:27;;;;;;;3.92;2.08;;;24.10;99.90;;;;;;5032777;28;20046;-60
2021/08/04 11:47:10;;;;;;;3.72;1.80;;;24.00;99.90;;;;;;5029412;28;20033;-61
2021/08/04 11:49:39;;;;;;;8.05;2.40;;;24.30;99.90;;;;;;5034339;28;20034;-60
2021/08/04 11:52:06;;;;;;;5.57;2.08;;;24.50;99.90;;;;;;5031873;28;20117;-61
2021/08/04 11:54:49;;;;;;;6.40;2.67;;;24.40;99.90;;;;;;5033208;28;20030;-61
2021/08/04 11:57:35;;;;;;;6.50;2.28;;;24.50;99.90;;;;;;5032805;28;20059;-61
2021/08/04 12:00:06;;;;;;;5.28;2.17;;;24.50;99.90;;;;;;5031989;28;20038;-60
2021/08/04 12:02:34;;;;;;;3.47;2.20;;;24.60;99.90;;;;;;5034312;28;20033;-61
2021/08/04 12:05:00;;;;;;;3.35;1.90;;;24.30;99.90;;;;;;5036382;28;20032;-60
2021/08/04 12:07:28;;;;;;;4.88;2.45;;;24.30;99.90;;;;;;5033403;28;20030;-60
2021/08/04 12:09:56;;;;;;;5.88;2.40;;;24.20;99.90;;;;;;5033138;28;20033;-62
2021/08/04 12:12:27;;;;;;;3.33;2.20;;;24.30;99.90;;;;;;5032587;28;20412;-60
2021/08/04 12:14:53;;;;;;;6.85;2.63;;;24.50;99.70;;;;;;5032876;28;20045;-60
2021/08/04 12:17:24;;;;;;;3.88;1.70;;;24.40;99.50;;;;;;5031444;28;20030;-61
2021/08/04 12:19:53;;;;;;;2.78;1.70;;;24.30;99.70;;;;;;5035641;28;20028;-61
2021/08/04 12:22:29;;;;;;;5.70;1.95;;;24.30;99.90;;;;;;5041203;28;20039;-61
2021/08/04 12:25:00;;;;;;;4.43;2.10;;;24.20;99.80;;;;;;5032755;28;20391;-60
2021/08/04 12:27:41;;;;;;;2.78;1.75;;;24.20;99.90;;;;;;5033580;28;20085;-60
2021/08/04 12:30:11;;;;;;;3.15;1.98;;;24.50;99.90;;;;;;5031485;28;20463;-60
2021/08/04 12:32:51;;;;;;;4.97;2.05;;;24.60;99.30;;;;;;5033892;28;20064;-59
2021/08/04 12:35:25;;;;;;;9.40;2.45;;;24.50;99.50;;;;;;5031895;28;20033;-61
2021/08/04 12:37:52;;;;;;;2.65;1.77;;;24.80;99.60;;;;;;5032066;28;20037;-59
2021/08/04 12:40:18;;;;;;;5.90;2.10;;;24.90;98.70;;;;;;5031440;28;20112;-60
2021/08/04 12:42:45;;;;;;;4.57;1.80;;;24.90;98.20;;;;;;5030629;28;20116;-61
2021/08/04 12:45:25;;;;;;;5.50;2.00;;;25.00;97.90;;;;;;5032463;28;20021;-60
2021/08/04 12:48:02;;;;;;;4.20;2.10;;;24.90;98.90;;;;;;5031993;28;20030;-61
2021/08/04 12:50:49;;;;;;;5.53;2.10;;;25.20;98.90;;;;;;5031494;28;20391;-61
2021/08/04 12:53:28;;;;;;;9.45;2.40;;;25.40;98.30;;;;;;5033402;28;20136;-62
2021/08/04 12:56:10;;;;;;;5.85;2.30;;;25.40;98.90;;;;;;5024526;28;20025;-62